createdAt,value
2023-05-14T00:03:32.528Z,9.87
2023-05-14T00:05:59.520Z,9.81
2023-05-14T00:08:26.367Z,9.60
2023-05-14T00:10:53.188Z,10.11
2023-05-14T00:13:20.032Z,10.18
2023-05-14T00:15:46.804Z,10.39
2023-05-14T00:18:13.634Z,10.57
2023-05-14T00:20:40.991Z,10.67
2023-05-14T00:23:08.933Z,10.53
2023-05-14T00:25:36.474Z,10.36
2023-05-14T00:28:04.009Z,10.49
2023-05-14T00:30:30.787Z,10.44
2023-05-14T00:32:57.682Z,10.42
2023-05-14T00:35:24.595Z,10.48
2023-05-14T00:37:51.417Z,10.55
2023-05-14T00:40:18.501Z,10.60
2023-05-14T00:42:46.335Z,10.82
2023-05-14T00:45:13.499Z,10.80
2023-05-14T00:47:41.010Z,10.85
2023-05-14T00:50:08.865Z,10.85
2023-05-14T00:52:37.651Z,10.69
2023-05-14T00:55:06.839Z,10.61
2023-05-14T00:57:36.150Z,10.83
2023-05-14T01:00:04.098Z,10.79
2023-05-14T01:02:30.904Z,10.86
2023-05-14T01:04:58.283Z,10.94
2023-05-14T01:07:52.572Z,11.01
2023-05-14T01:10:36.990Z,10.87
2023-05-14T01:13:42.326Z,10.86
2023-05-14T01:16:13.772Z,10.81
2023-05-14T01:18:43.361Z,10.95
2023-05-14T01:21:35.227Z,10.95
2023-05-14T01:24:02.341Z,11.01
2023-05-14T01:26:31.440Z,11.05
2023-05-14T01:29:17.246Z,11.03
2023-05-14T01:31:47.253Z,10.95
2023-05-14T01:34:15.884Z,10.94
2023-05-14T01:36:44.010Z,10.63
2023-05-14T01:39:12.189Z,10.74
2023-05-14T01:41:40.021Z,10.64
2023-05-14T01:44:07.036Z,10.73
2023-05-14T01:46:34.134Z,10.64
2023-05-14T01:49:01.222Z,10.48
2023-05-14T01:51:28.295Z,10.42
2023-05-14T01:53:55.157Z,10.53
2023-05-14T01:56:23.874Z,10.55
2023-05-14T01:58:50.630Z,10.58
2023-05-14T02:01:17.674Z,10.52
2023-05-14T02:03:44.911Z,10.47
2023-05-14T02:06:11.998Z,10.52
2023-05-14T02:08:39.085Z,10.54
2023-05-14T02:11:05.923Z,10.55
2023-05-14T02:13:32.670Z,10.58
2023-05-14T02:15:59.531Z,10.65
2023-05-14T02:18:26.222Z,10.64
2023-05-14T02:20:53.178Z,10.60
2023-05-14T02:23:25.604Z,10.51
2023-05-14T02:25:58.033Z,10.59
2023-05-14T02:28:24.868Z,10.62
2023-05-14T02:30:51.796Z,10.58
2023-05-14T02:33:18.730Z,10.67
2023-05-14T02:35:45.523Z,10.68
2023-05-14T02:38:13.323Z,10.66
2023-05-14T02:40:40.130Z,10.62
2023-05-14T02:43:07.064Z,10.75
2023-05-14T02:45:33.899Z,10.76
2023-05-14T02:48:00.728Z,10.76
2023-05-14T02:50:27.909Z,10.88
2023-05-14T02:52:54.785Z,10.88
2023-05-14T02:55:26.375Z,10.85
2023-05-14T02:57:53.413Z,10.73
2023-05-14T03:00:20.752Z,10.82
2023-05-14T03:02:48.514Z,10.68
2023-05-14T03:05:15.913Z,10.86
2023-05-14T03:07:42.749Z,10.92
2023-05-14T03:10:09.875Z,10.89
2023-05-14T03:12:36.743Z,10.88
2023-05-14T03:15:04.015Z,10.94
2023-05-14T03:17:30.947Z,10.93
2023-05-14T03:19:57.715Z,10.88
2023-05-14T03:22:24.577Z,10.95
2023-05-14T03:24:51.265Z,10.98
2023-05-14T03:27:18.048Z,11.03
2023-05-14T03:29:45.900Z,10.83
2023-05-14T03:32:12.904Z,10.88
2023-05-14T03:34:40.061Z,10.85
2023-05-14T03:37:07.104Z,10.72
2023-05-14T03:39:34.031Z,10.72
2023-05-14T03:42:01.344Z,10.69
2023-05-14T03:44:28.743Z,10.86
2023-05-14T03:46:56.212Z,10.75
2023-05-14T03:49:25.519Z,10.75
2023-05-14T03:51:52.343Z,10.86
2023-05-14T03:54:19.332Z,10.97
2023-05-14T03:56:46.297Z,10.79
2023-05-14T03:59:13.493Z,10.65
2023-05-14T04:01:40.253Z,10.72
2023-05-14T04:04:07.334Z,10.90
2023-05-14T04:06:35.123Z,10.94
2023-05-14T04:09:03.450Z,10.76
2023-05-14T04:11:31.072Z,10.77
2023-05-14T04:13:59.590Z,10.89
2023-05-14T04:16:26.722Z,11.00
2023-05-14T04:18:53.790Z,10.90
2023-05-14T04:21:21.211Z,10.85
2023-05-14T04:23:48.117Z,11.06
2023-05-14T04:26:14.925Z,10.93
2023-05-14T04:28:41.705Z,10.93
2023-05-14T04:31:08.639Z,10.99
2023-05-14T04:33:35.506Z,11.20
2023-05-14T04:36:04.953Z,11.11
2023-05-14T04:38:32.124Z,11.17
2023-05-14T04:40:59.093Z,11.20
2023-05-14T04:43:25.994Z,11.33
2023-05-14T04:45:52.927Z,11.27
2023-05-14T04:48:19.900Z,11.32
2023-05-14T04:50:47.197Z,11.40
2023-05-14T04:53:14.069Z,11.23
2023-05-14T04:55:40.910Z,11.20
2023-05-14T04:58:07.850Z,11.13
2023-05-14T05:00:34.829Z,10.99
2023-05-14T05:03:01.622Z,11.26
2023-05-14T05:05:28.730Z,11.15
2023-05-14T05:07:55.962Z,11.14
2023-05-14T05:10:23.199Z,11.12
2023-05-14T05:12:50.480Z,11.30
2023-05-14T05:15:17.393Z,11.50
2023-05-14T05:17:44.308Z,11.17
2023-05-14T05:20:11.772Z,11.09
2023-05-14T05:22:38.700Z,10.96
2023-05-14T05:25:06.406Z,11.33
2023-05-14T05:27:33.869Z,11.55
2023-05-14T05:30:04.222Z,11.13
2023-05-14T05:32:31.359Z,11.55
2023-05-14T05:35:01.538Z,11.60
2023-05-14T05:37:28.624Z,11.56
2023-05-14T05:39:55.574Z,11.35
2023-05-14T05:42:22.725Z,11.57
2023-05-14T05:44:49.534Z,11.66
2023-05-14T05:47:17.179Z,11.81
2023-05-14T05:49:44.087Z,12.04
2023-05-14T05:52:11.139Z,12.12
2023-05-14T05:54:39.976Z,11.97
2023-05-14T05:57:07.162Z,11.92
2023-05-14T05:59:34.316Z,11.98
2023-05-14T06:02:01.434Z,12.09
2023-05-14T06:04:28.820Z,12.20
2023-05-14T06:06:56.614Z,12.43
2023-05-14T06:09:24.117Z,12.52
2023-05-14T06:11:51.388Z,12.61
2023-05-14T06:14:21.427Z,12.51
2023-05-14T06:16:50.149Z,12.52
2023-05-14T06:19:17.151Z,12.97
2023-05-14T06:21:44.442Z,12.99
2023-05-14T06:24:11.900Z,12.84
2023-05-14T06:26:38.823Z,13.11
2023-05-14T06:29:06.416Z,13.06
2023-05-14T06:31:34.012Z,13.16
2023-05-14T06:34:00.998Z,13.51
2023-05-14T06:36:28.063Z,13.39
2023-05-14T06:38:55.229Z,13.14
2023-05-14T06:41:22.920Z,12.38
2023-05-14T06:43:50.761Z,12.90
2023-05-14T06:46:47.962Z,12.59
2023-05-14T06:49:16.719Z,13.27
2023-05-14T06:51:49.626Z,13.35
2023-05-14T06:54:20.615Z,13.63
2023-05-14T06:56:52.080Z,13.56
2023-05-14T06:59:20.464Z,13.68
2023-05-14T07:01:49.188Z,13.62
2023-05-14T07:04:17.154Z,13.60
2023-05-14T07:06:55.986Z,13.27
2023-05-14T07:09:28.333Z,13.66
2023-05-14T07:12:09.160Z,13.96
2023-05-14T07:14:39.503Z,14.20
2023-05-14T07:17:09.133Z,14.14
2023-05-14T07:19:37.560Z,14.66
2023-05-14T07:22:05.687Z,14.87
2023-05-14T07:24:33.298Z,15.54
2023-05-14T07:27:02.264Z,15.25
2023-05-14T07:29:30.378Z,15.12
2023-05-14T07:31:59.759Z,15.33
2023-05-14T07:34:27.964Z,15.13
2023-05-14T07:37:00.691Z,14.93
2023-05-14T07:39:29.625Z,15.18
2023-05-14T07:41:58.000Z,15.09
2023-05-14T07:44:27.660Z,15.06
2023-05-14T07:46:55.754Z,15.27
2023-05-14T07:49:24.422Z,15.06
2023-05-14T07:51:54.511Z,15.35
2023-05-14T07:54:25.322Z,14.53
2023-05-14T07:56:52.356Z,15.01
2023-05-14T07:59:19.896Z,14.94
2023-05-14T08:01:47.012Z,15.06
2023-05-14T08:04:16.385Z,14.99
2023-05-14T08:06:43.410Z,14.99
2023-05-14T08:09:10.351Z,15.31
2023-05-14T08:11:39.384Z,15.28
2023-05-14T08:14:06.761Z,14.67
2023-05-14T08:16:33.817Z,15.15
2023-05-14T08:19:01.501Z,14.92
2023-05-14T08:21:29.674Z,15.05
2023-05-14T08:23:56.699Z,15.31
2023-05-14T08:26:24.170Z,15.96
2023-05-14T08:28:51.403Z,15.98
2023-05-14T08:31:18.775Z,15.51
2023-05-14T08:33:46.537Z,15.87
2023-05-14T08:36:14.595Z,16.03
2023-05-14T08:38:42.552Z,15.16
2023-05-14T08:41:11.772Z,15.56
2023-05-14T08:43:50.502Z,15.80
2023-05-14T08:46:18.250Z,15.98
2023-05-14T08:48:53.374Z,15.94
2023-05-14T08:51:20.514Z,15.78
2023-05-14T08:53:48.677Z,16.03
2023-05-14T08:56:18.330Z,16.26
2023-05-14T08:58:46.342Z,15.57
2023-05-14T09:01:13.288Z,15.50
2023-05-14T09:03:42.336Z,15.11
2023-05-14T09:06:10.788Z,15.69
2023-05-14T09:08:38.899Z,16.37
2023-05-14T09:11:05.875Z,16.39
2023-05-14T09:13:32.814Z,16.53
2023-05-14T09:16:00.889Z,16.08
2023-05-14T09:18:27.952Z,16.22
2023-05-14T09:20:54.902Z,16.44
2023-05-14T09:23:21.810Z,16.82
2023-05-14T09:25:48.836Z,15.54
2023-05-14T09:28:17.301Z,15.99
2023-05-14T09:30:51.680Z,15.98
2023-05-14T09:33:29.168Z,16.01
2023-05-14T09:36:01.605Z,16.16
2023-05-14T09:38:30.418Z,15.21
2023-05-14T09:40:58.181Z,14.95
2023-05-14T09:43:26.062Z,14.72
2023-05-14T09:45:53.214Z,15.37
2023-05-14T09:48:20.515Z,14.58
2023-05-14T09:50:47.348Z,14.42
2023-05-14T09:53:14.718Z,15.06
2023-05-14T09:55:42.022Z,15.59
2023-05-14T09:58:09.102Z,15.67
2023-05-14T10:00:36.438Z,15.17
2023-05-14T10:03:08.351Z,15.18
2023-05-14T10:05:38.843Z,15.62
2023-05-14T10:08:13.428Z,14.96
2023-05-14T10:10:40.886Z,15.23
2023-05-14T10:13:14.978Z,15.79
2023-05-14T10:16:14.348Z,16.21
2023-05-14T10:18:48.953Z,16.54
2023-05-14T10:21:24.034Z,15.56
2023-05-14T10:23:54.042Z,16.09
2023-05-14T10:26:24.009Z,16.45
2023-05-14T10:28:51.209Z,15.99
2023-05-14T10:31:22.833Z,15.78
2023-05-14T10:33:55.772Z,16.47
2023-05-14T10:36:24.012Z,16.25
2023-05-14T10:38:57.491Z,15.58
2023-05-14T10:41:25.244Z,15.49
2023-05-14T10:43:52.652Z,15.76
2023-05-14T10:46:20.384Z,16.48
2023-05-14T10:48:48.379Z,16.45
2023-05-14T10:51:17.620Z,16.38
2023-05-14T10:53:45.201Z,16.86
2023-05-14T10:56:13.839Z,16.73
2023-05-14T10:58:44.080Z,17.04
2023-05-14T11:01:12.911Z,16.51
2023-05-14T11:03:41.914Z,16.57
2023-05-14T11:06:10.815Z,16.44
2023-05-14T11:08:38.920Z,16.45
2023-05-14T11:11:07.060Z,16.60
2023-05-14T11:13:34.790Z,16.62
2023-05-14T11:16:11.993Z,16.26
2023-05-14T11:18:54.963Z,16.10
2023-05-14T11:21:21.996Z,16.85
2023-05-14T11:23:49.105Z,17.16
2023-05-14T11:26:16.503Z,17.04
2023-05-14T11:28:44.638Z,16.91
2023-05-14T11:31:11.776Z,16.31
2023-05-14T11:33:40.252Z,17.19
2023-05-14T11:36:07.126Z,17.51
2023-05-14T11:38:33.986Z,17.84
2023-05-14T11:41:01.470Z,17.97
2023-05-14T11:43:29.474Z,18.18
2023-05-14T11:45:56.995Z,17.44
2023-05-14T11:48:34.935Z,17.64
2023-05-14T11:51:04.833Z,18.42
2023-05-14T11:53:32.530Z,18.51
2023-05-14T11:55:59.880Z,18.91
2023-05-14T11:58:26.776Z,18.86
2023-05-14T12:00:56.124Z,18.43
2023-05-14T12:03:26.390Z,17.57
2023-05-14T12:05:57.734Z,17.59
2023-05-14T12:08:31.925Z,17.14
2023-05-14T12:11:00.846Z,18.22
2023-05-14T12:13:30.110Z,18.32
2023-05-14T12:16:02.220Z,18.21
2023-05-14T12:18:31.767Z,18.07
2023-05-14T12:21:08.397Z,18.42
2023-05-14T12:23:35.840Z,18.78
2023-05-14T12:26:06.158Z,18.08
2023-05-14T12:28:38.872Z,18.76
2023-05-14T12:31:06.019Z,18.63
2023-05-14T12:33:32.866Z,18.51
2023-05-14T12:38:33.170Z,18.32
2023-05-14T12:41:01.908Z,19.09
2023-05-14T12:43:31.582Z,18.84
2023-05-14T12:45:58.292Z,19.03
2023-05-14T12:48:25.151Z,19.52
2023-05-14T12:50:52.101Z,19.34
2023-05-14T12:53:18.976Z,18.67
2023-05-14T12:55:46.831Z,18.86
2023-05-14T12:58:13.800Z,19.45
2023-05-14T13:00:40.756Z,19.21
2023-05-14T13:03:08.116Z,19.57
2023-05-14T13:05:35.090Z,20.19
2023-05-14T13:08:04.030Z,19.75
2023-05-14T13:10:30.861Z,18.74
2023-05-14T13:12:58.246Z,18.18
2023-05-14T13:15:25.475Z,18.65
2023-05-14T13:17:52.596Z,19.21
2023-05-14T13:20:20.144Z,17.70
2023-05-14T13:22:46.993Z,18.37
2023-05-14T13:25:13.889Z,18.66
2023-05-14T13:27:41.240Z,18.33
2023-05-14T13:30:08.591Z,17.20
2023-05-14T13:32:35.939Z,16.53
2023-05-14T13:35:02.726Z,16.70
2023-05-14T13:37:29.534Z,16.52
2023-05-14T13:39:56.384Z,16.28
2023-05-14T13:42:23.808Z,16.74
2023-05-14T13:44:50.873Z,17.42
2023-05-14T13:47:17.872Z,17.43
2023-05-14T13:49:44.736Z,16.76
2023-05-14T13:52:11.771Z,15.90
2023-05-14T13:54:38.669Z,16.41
2023-05-14T13:57:06.078Z,16.48
2023-05-14T13:59:33.047Z,16.04
2023-05-14T14:02:00.083Z,15.29
2023-05-14T14:04:29.367Z,14.99
2023-05-14T14:06:56.781Z,15.87
2023-05-14T14:09:24.374Z,16.11
2023-05-14T14:11:51.583Z,15.74
2023-05-14T14:14:18.927Z,14.34
2023-05-14T14:16:45.926Z,14.71
2023-05-14T14:19:12.767Z,14.35
2023-05-14T14:21:43.022Z,14.27
2023-05-14T14:24:10.117Z,13.56
2023-05-14T14:26:37.115Z,13.36
2023-05-14T14:29:04.286Z,13.28
2023-05-14T14:31:31.240Z,13.97
2023-05-14T14:33:58.122Z,14.42
2023-05-14T14:36:24.901Z,13.83
2023-05-14T14:38:51.709Z,13.17
2023-05-14T14:41:18.738Z,13.10
2023-05-14T14:43:45.731Z,13.30
2023-05-14T14:46:12.879Z,13.12
2023-05-14T14:48:43.482Z,12.75
2023-05-14T14:51:10.355Z,12.45
2023-05-14T14:53:37.358Z,12.45
2023-05-14T14:56:04.867Z,12.00
2023-05-14T14:58:32.283Z,12.09
2023-05-14T15:00:59.629Z,12.14
2023-05-14T15:03:29.229Z,12.24
2023-05-14T15:05:56.389Z,12.31
2023-05-14T15:08:27.536Z,12.23
2023-05-14T15:10:57.727Z,12.14
2023-05-14T15:13:25.150Z,12.09
2023-05-14T15:15:55.452Z,12.09
2023-05-14T15:18:22.267Z,12.34
2023-05-14T15:20:49.677Z,12.10
2023-05-14T15:23:17.809Z,11.91
2023-05-14T15:25:44.825Z,12.06
2023-05-14T15:28:12.996Z,11.84
2023-05-14T15:30:41.399Z,11.83
2023-05-14T15:33:09.025Z,11.72
2023-05-14T15:35:36.518Z,11.55
2023-05-14T15:38:03.699Z,11.58
2023-05-14T15:40:30.752Z,11.62
2023-05-14T15:42:57.463Z,11.51
2023-05-14T15:45:24.261Z,11.57
2023-05-14T15:47:51.187Z,11.84
2023-05-14T15:50:18.169Z,11.92
2023-05-14T15:52:44.989Z,11.96
2023-05-14T15:55:12.081Z,11.69
2023-05-14T15:57:39.066Z,12.20
2023-05-14T16:00:12.344Z,12.15
2023-05-14T16:02:40.203Z,11.72
2023-05-14T16:05:07.891Z,11.89
2023-05-14T16:07:37.016Z,11.74
2023-05-14T16:10:04.977Z,11.60
2023-05-14T16:12:32.191Z,11.29
2023-05-14T16:15:00.073Z,11.71
2023-05-14T16:17:28.596Z,11.96
2023-05-14T16:19:56.412Z,12.08
2023-05-14T16:22:23.588Z,12.23
2023-05-14T16:24:50.498Z,12.32
2023-05-14T16:27:19.237Z,12.44
2023-05-14T16:29:46.160Z,12.57
2023-05-14T16:32:13.080Z,12.53
2023-05-14T16:34:40.742Z,12.52
2023-05-14T16:37:08.094Z,12.11
2023-05-14T16:39:34.940Z,12.06
2023-05-14T16:42:02.200Z,12.42
2023-05-14T16:44:29.987Z,12.54
2023-05-14T16:46:56.803Z,12.16
2023-05-14T16:49:23.653Z,12.71
2023-05-14T16:51:50.376Z,12.97
2023-05-14T16:54:17.268Z,12.17
2023-05-14T16:56:48.206Z,12.41
2023-05-14T16:59:16.103Z,12.54
2023-05-14T17:01:43.881Z,12.71
2023-05-14T17:04:11.034Z,13.05
2023-05-14T17:06:37.927Z,13.02
2023-05-14T17:09:05.318Z,12.53
2023-05-14T17:11:32.227Z,12.67
2023-05-14T17:13:59.039Z,12.23
2023-05-14T17:16:27.121Z,12.81
2023-05-14T17:18:54.140Z,12.95
2023-05-14T17:21:21.147Z,12.87
2023-05-14T17:23:47.965Z,13.14
2023-05-14T17:26:14.825Z,12.45
2023-05-14T17:28:41.714Z,12.57
2023-05-14T17:31:08.765Z,12.55
2023-05-14T17:33:36.046Z,12.30
2023-05-14T17:36:03.576Z,12.45
2023-05-14T17:38:30.408Z,12.46
2023-05-14T17:40:57.463Z,12.22
2023-05-14T17:43:24.185Z,12.07
2023-05-14T17:45:54.296Z,12.62
2023-05-14T17:48:22.935Z,12.70
2023-05-14T17:50:51.674Z,12.57
2023-05-14T17:53:18.596Z,12.79
2023-05-14T17:55:45.506Z,12.78
2023-05-14T17:58:14.431Z,12.81
2023-05-14T18:00:42.455Z,12.82
2023-05-14T18:03:10.435Z,12.57
2023-05-14T18:05:37.507Z,12.65
2023-05-14T18:08:04.599Z,12.49
2023-05-14T18:10:31.464Z,12.46
2023-05-14T18:12:58.233Z,12.57
2023-05-14T18:15:25.860Z,12.67
2023-05-14T18:17:53.421Z,12.74
2023-05-14T18:20:23.668Z,12.73
2023-05-14T18:22:51.453Z,12.76
2023-05-14T18:25:18.379Z,12.69
2023-05-14T18:27:45.515Z,12.86
2023-05-14T18:30:14.712Z,12.86
2023-05-14T18:32:43.827Z,12.64
2023-05-14T18:35:11.882Z,12.67
2023-05-14T18:37:39.493Z,12.43
2023-05-14T18:40:07.673Z,12.60
2023-05-14T18:42:34.991Z,12.64
2023-05-14T18:45:02.673Z,12.68
2023-05-14T18:47:29.876Z,12.46
2023-05-14T18:49:59.380Z,12.47
2023-05-14T18:52:26.758Z,12.16
2023-05-14T18:54:54.855Z,12.23
2023-05-14T18:57:22.422Z,12.33
2023-05-14T18:59:49.715Z,12.28
2023-05-14T19:02:17.762Z,12.05
2023-05-14T19:04:52.343Z,12.11
2023-05-14T19:07:21.544Z,11.77
2023-05-14T19:09:49.327Z,12.01
2023-05-14T19:12:17.566Z,11.99
2023-05-14T19:14:44.687Z,12.11
2023-05-14T19:17:12.417Z,12.06
2023-05-14T19:19:39.531Z,12.11
2023-05-14T19:22:06.977Z,11.84
2023-05-14T19:24:34.238Z,11.93
2023-05-14T19:27:01.418Z,11.88
2023-05-14T19:29:28.807Z,11.79
2023-05-14T19:31:55.981Z,11.91
2023-05-14T19:34:23.175Z,11.77
2023-05-14T19:36:50.829Z,11.98
2023-05-14T19:39:19.731Z,12.05
2023-05-14T19:41:46.938Z,11.85
2023-05-14T19:44:14.235Z,11.95
2023-05-14T19:46:41.502Z,11.76
2023-05-14T19:49:08.324Z,11.66
2023-05-14T19:51:35.429Z,11.69
2023-05-14T19:54:02.443Z,11.69
2023-05-14T19:56:32.122Z,11.52
2023-05-14T19:59:03.523Z,11.52
2023-05-14T20:01:34.534Z,11.39
2023-05-14T20:04:06.432Z,11.70
2023-05-14T20:06:34.348Z,11.63
2023-05-14T20:09:04.731Z,11.67
2023-05-14T20:11:36.736Z,11.55
2023-05-14T20:14:03.874Z,11.49
2023-05-14T20:16:31.750Z,11.46
2023-05-14T20:18:58.685Z,11.52
2023-05-14T20:21:25.572Z,11.65
2023-05-14T20:23:52.548Z,11.54
2023-05-14T20:26:19.347Z,11.29
2023-05-14T20:28:46.193Z,11.40
2023-05-14T20:31:13.238Z,11.44
2023-05-14T20:33:40.708Z,11.29
2023-05-14T20:36:07.634Z,11.45
2023-05-14T20:38:35.447Z,11.27
2023-05-14T20:41:02.425Z,11.41
2023-05-14T20:43:29.449Z,11.56
2023-05-14T20:45:57.385Z,11.63
2023-05-14T20:48:24.099Z,11.68
2023-05-14T20:50:51.194Z,11.53
2023-05-14T20:53:18.859Z,11.46
2023-05-14T20:55:45.918Z,11.47
2023-05-14T20:58:12.637Z,11.55
2023-05-14T21:00:39.408Z,11.49
2023-05-14T21:03:06.319Z,11.57
2023-05-14T21:05:33.225Z,11.64
2023-05-14T21:08:00.167Z,11.42
2023-05-14T21:10:27.124Z,11.29
2023-05-14T21:12:54.131Z,11.35
2023-05-14T21:15:20.933Z,11.34
2023-05-14T21:17:47.714Z,11.43
2023-05-14T21:20:15.767Z,11.21
2023-05-14T21:22:42.672Z,10.89
2023-05-14T21:25:09.971Z,11.20
2023-05-14T21:27:37.318Z,11.19
2023-05-14T21:30:04.513Z,11.38
2023-05-14T21:32:31.273Z,11.13
2023-05-14T21:34:58.142Z,11.14
2023-05-14T21:37:25.050Z,11.38
2023-05-14T21:39:51.797Z,11.45
2023-05-14T21:42:21.066Z,11.35
2023-05-14T21:44:47.969Z,11.26
2023-05-14T21:47:16.165Z,11.40
2023-05-14T21:49:43.413Z,11.33
2023-05-14T21:52:10.862Z,10.98
2023-05-14T21:54:37.737Z,11.45
2023-05-14T21:57:04.804Z,11.14
2023-05-14T21:59:31.552Z,11.23
2023-05-14T22:04:28.512Z,11.36
2023-05-14T22:06:55.700Z,11.46
2023-05-14T22:09:22.527Z,11.47
2023-05-14T22:11:49.451Z,11.60
2023-05-14T22:14:16.265Z,11.29
2023-05-14T22:16:43.091Z,11.28
2023-05-14T22:19:09.947Z,11.31
2023-05-14T22:21:36.822Z,11.46
2023-05-14T22:24:03.732Z,11.54
2023-05-14T22:26:30.688Z,11.29
2023-05-14T22:28:57.743Z,11.32
2023-05-14T22:31:24.819Z,11.52
2023-05-14T22:33:51.680Z,11.54
2023-05-14T22:36:18.995Z,11.51
2023-05-14T22:38:46.899Z,11.47
2023-05-14T22:41:13.675Z,11.58
2023-05-14T22:43:41.147Z,11.54
2023-05-14T22:46:08.138Z,11.54
2023-05-14T22:48:35.053Z,11.50
2023-05-14T22:51:01.780Z,11.58
2023-05-14T22:53:28.542Z,11.58
2023-05-14T22:55:55.313Z,11.57
2023-05-14T22:58:22.199Z,11.43
2023-05-14T23:00:49.032Z,11.62
2023-05-14T23:03:16.110Z,11.56
2023-05-14T23:05:43.023Z,11.60
2023-05-14T23:08:10.969Z,11.60
2023-05-14T23:10:37.716Z,11.51
2023-05-14T23:13:06.649Z,11.55
2023-05-14T23:15:33.590Z,11.63
2023-05-14T23:18:00.693Z,11.55
2023-05-14T23:20:27.529Z,11.40
2023-05-14T23:22:54.421Z,11.29
2023-05-14T23:25:21.350Z,11.25
2023-05-14T23:27:48.252Z,10.76
2023-05-14T23:30:15.293Z,11.25
2023-05-14T23:32:42.212Z,11.39
2023-05-14T23:35:09.912Z,11.45
2023-05-14T23:37:41.781Z,11.35
2023-05-14T23:40:09.650Z,11.26
2023-05-14T23:42:36.451Z,11.34
2023-05-14T23:45:03.651Z,11.44
2023-05-14T23:47:30.668Z,11.21
2023-05-14T23:49:57.607Z,11.34
2023-05-14T23:52:24.404Z,11.19
2023-05-14T23:54:51.327Z,11.11
2023-05-14T23:57:18.405Z,10.65
2023-05-14T23:59:46.140Z,10.84
